Latest Weather Observations for Low Isles

IDQ60801

Issued at 11:12 pm EST Tuesday 26 January 2021 (issued every 10 minutes, with the page automatically refreshed every 10 minutes)

About weather observations | Map of weather stations | Latest weather observations for QLD | Other Formats
Station Details ID: 031037 Name: LOW ISLES LIGHTHOUSE Lat: -16.38 Lon: 145.56 Height: 2.9 m
Data from the previous 72 hours. | See also: Recent months at Low Isles
Date/Time
EST
Temp
°C
App
Temp
°C
Dew
Point
°C
Rel
Hum
%
Delta-T
°C
Wind Press
QNH
hPa
Press
MSL
hPa
Rain since
9am
mm
Dir  Spd
km/h
Gust
km/h
Spd
kts
Gust
kts
26/11:00pm 27.7 30.9 23.1 76 3.1 E 11 15 6 8 1005.5 1005.4 0.0
26/10:30pm 27.8 30.6 23.0 75 3.3 E 13 17 7 9 1006.0 1005.9 0.0
26/10:00pm 27.8 30.3 23.2 76 3.1 E 15 17 8 9 1005.9 1005.8 0.0
26/09:30pm 28.0 31.0 23.4 76 3.2 E 13 17 7 9 1005.6 1005.5 0.0
26/09:00pm 28.0 30.5 23.2 75 3.3 ESE 15 19 8 10 1005.5 1005.4 0.0
26/08:30pm 28.1 30.1 23.0 74 3.5 E 17 20 9 11 1005.1 1005.0 0.0
26/08:00pm 28.3 30.7 23.7 76 3.2 E 17 20 9 11 1005.1 1005.0 0.0
26/07:30pm 28.2 30.8 23.3 75 3.4 E 15 19 8 10 1004.9 1004.8 0.0
26/07:00pm 28.2 30.2 22.9 73 3.6 E 17 20 9 11 1004.6 1004.5 0.0
26/06:30pm 28.4 30.4 22.9 72 3.7 ENE 17 20 9 11 1004.3 1004.2 0.0
26/06:00pm 28.7 30.6 23.4 73 3.6 ENE 19 22 10 12 1003.8 1003.7 0.0
26/05:30pm 28.8 30.6 23.5 73 3.6 ENE 20 28 11 15 1003.4 1003.3 0.0
26/05:00pm 28.9 29.8 23.3 72 3.9 E 24 30 13 16 1003.1 1003.0 0.0
26/04:30pm 29.5 31.1 23.2 69 4.3 E 20 28 11 15 1002.9 1002.8 0.0
26/04:00pm 29.8 31.2 23.5 69 4.4 E 22 28 12 15 1002.8 1002.7 0.0
26/03:30pm 29.7 30.7 24.1 72 3.9 ESE 26 32 14 17 1002.9 1002.8 0.0
26/03:00pm 29.7 30.4 23.6 69 4.2 ESE 26 30 14 16 1003.5 1003.4 0.0
26/02:30pm 30.1 31.4 24.0 70 4.2 ESE 24 30 13 16 1003.5 1003.4 0.0
26/02:00pm 29.9 31.5 23.8 70 4.2 ESE 22 28 12 15 1003.7 1003.6 0.0
26/01:30pm 29.6 31.0 23.5 69 4.2 ESE 22 28 12 15 1004.0 1003.9 0.0
26/01:00pm 30.3 32.7 24.2 70 4.3 ESE 19 28 10 15 1004.3 1004.2 0.0
26/12:30pm 29.9 32.7 24.3 72 3.9 ESE 17 22 9 12 1004.8 1004.7 0.0
26/12:00pm 29.1 30.9 23.5 72 3.9 ESE 20 24 11 13 1005.0 1004.9 0.0
26/11:30am 29.1 30.9 23.5 72 3.9 ESE 20 22 11 12 1005.3 1005.2 0.0
26/11:00am 28.8 31.0 23.9 75 3.4 ENE 19 22 10 12 1005.7 1005.6 0.0
26/10:30am 28.4 30.2 23.3 74 3.5 E 19 22 10 12 1006.0 1005.9 0.0
26/10:00am 27.9 31.1 23.7 78 2.9 ENE 13 15 7 8 1006.2 1006.1 0.0
26/09:30am 27.6 31.5 23.6 79 2.7 ENE 9 13 5 7 1006.3 1006.2 0.0
26/09:00am 26.8 30.3 22.8 79 2.7 ESE 9 13 5 7 1006.1 1006.0 0.0
26/08:30am 26.8 30.4 23.1 80 2.5 SSE 9 11 5 6 1006.1 1006.0 0.0
26/08:00am 27.0 30.7 23.3 80 2.5 SSE 9 11 5 6 1006.0 1005.9 0.0
26/07:30am 26.9 30.6 23.2 80 2.5 SSW 9 13 5 7 1006.1 1006.0 0.0
26/07:00am 27.0 30.7 23.3 80 2.5 S 9 11 5 6 1005.9 1005.8 0.0
26/06:30am 26.6 29.8 22.4 78 2.8 S 9 13 5 7 1005.7 1005.6 0.0
26/06:00am 26.6 29.6 22.7 79 2.6 SSE 11 15 6 8 1005.1 1005.0 0.0
26/05:30am 26.4 28.9 22.5 79 2.6 SE 13 17 7 9 1004.6 1004.5 0.0
26/05:00am 26.5 28.8 22.1 77 3.0 SSE 13 15 7 8 1004.4 1004.3 0.0
26/04:30am 26.5 29.2 22.8 80 2.5 SE 13 15 7 8 1004.4 1004.3 0.0
26/04:00am 26.7 30.6 23.0 80 2.5 NE 7 9 4 5 1004.3 1004.2 0.0
26/03:30am 26.7 30.3 23.0 80 2.5 NE 9 13 5 7 1004.2 1004.1 0.0
26/03:00am 26.7 30.1 23.4 82 2.3 NE 11 17 6 9 1004.4 1004.3 0.0
26/02:30am 26.4 29.7 22.5 79 2.6 NE 9 11 5 6 1004.3 1004.2 0.0
26/02:00am 26.6 29.8 22.4 78 2.8 NE 9 13 5 7 1004.5 1004.4 0.0
26/01:30am 27.0 29.7 22.8 78 2.8 NE 13 15 7 8 1004.7 1004.6 0.0
26/01:00am 27.1 29.5 22.9 78 2.9 NE 15 20 8 11 1005.2 1005.1 0.0
26/12:30am 27.2 30.1 23.2 79 2.7 NE 13 19 7 10 1005.6 1005.5 0.0
26/12:00am 26.7 30.2 22.8 79 2.6 NE 9 11 5 6 1006.4 1006.3 0.0
 
Date/Time
EST
Temp
°C
App
Temp
°C
Dew
Point
°C
Rel
Hum
%
Delta-T
°C
Wind Press
QNH
hPa
Press
MSL
hPa
Rain since
9am
mm
Dir  Spd
km/h
Gust
km/h
Spd
kts
Gust
kts
25/11:30pm 26.5 30.1 22.3 78 2.8 NE 7 11 4 6 1007.1 1007.0 0.0
25/11:00pm 26.8 30.2 22.0 75 3.2 NE 7 9 4 5 1007.6 1007.5 0.0
25/10:30pm 27.1 30.6 22.1 74 3.4 ENE 7 9 4 5 1007.8 1007.7 0.0
25/10:00pm 27.2 30.5 21.9 73 3.6 ENE 7 11 4 6 1007.8 1007.7 0.0
25/09:30pm 27.3 30.3 22.0 73 3.6 ENE 9 13 5 7 1007.6 1007.5 0.0
25/09:00pm 27.4 30.1 22.1 73 3.6 ENE 11 13 6 7 1007.2 1007.1 0.0
25/08:30pm 27.5 30.7 22.4 73 3.4 ENE 9 13 5 7 1007.0 1006.9 0.0
25/08:00pm 27.6 30.8 22.3 73 3.6 ENE 9 11 5 6 1006.8 1006.7 0.0
25/07:30pm 27.8 31.1 22.5 73 3.6 ENE 9 15 5 8 1006.6 1006.5 0.0
25/07:00pm 27.8 30.9 22.1 71 3.8 ENE 9 15 5 8 1006.4 1006.3 0.0
25/06:30pm 28.2 30.9 22.2 70 4.0 ENE 11 15 6 8 1006.3 1006.2 0.0
25/06:00pm 28.4 30.8 22.2 69 4.2 E 13 17 7 9 1005.8 1005.7 0.0
25/05:30pm 28.9 31.4 22.4 68 4.4 ENE 13 17 7 9 1005.5 1005.4 0.0
25/05:00pm 29.2 32.2 22.7 68 4.4 ENE 11 15 6 8 1005.4 1005.3 0.0
25/04:30pm 29.3 31.9 22.0 64 4.9 ENE 11 17 6 9 1005.4 1005.3 0.0
25/04:00pm 30.0 32.1 21.7 61 5.6 ENE 13 19 7 10 1005.4 1005.3 0.0
25/03:30pm 30.4 32.4 22.3 62 5.5 ENE 15 20 8 11 1005.5 1005.4 0.0
25/03:00pm 30.8 33.7 22.4 61 5.7 ENE 11 17 6 9 1005.7 1005.6 0.0
25/02:30pm 31.3 33.2 22.0 57 6.3 ENE 15 19 8 10 1006.0 1005.9 0.0
25/02:00pm 30.9 33.1 21.9 58 6.1 ENE 13 22 7 12 1006.4 1006.3 0.0
25/01:30pm 31.4 34.9 23.5 63 5.5 ENE 11 19 6 10 1006.7 1006.6 0.0
25/01:00pm 29.4 31.7 22.1 65 4.9 ENE 13 17 7 9 1006.9 1006.8 0.0
25/12:30pm 29.0 31.4 21.5 64 5.0 ENE 11 15 6 8 1007.2 1007.1 0.0
25/12:00pm 28.9 30.6 21.7 65 4.8 ENE 15 19 8 10 1007.6 1007.5 0.0
25/11:30am 28.8 30.3 21.3 64 5.0 ENE 15 20 8 11 1007.6 1007.5 0.0
25/11:00am 27.8 28.6 21.3 67 4.3 ENE 19 22 10 12 1007.8 1007.7 0.0
25/10:30am 27.7 28.6 21.5 69 4.1 ENE 19 24 10 13 1007.8 1007.7 0.0
25/10:00am 27.4 28.5 21.9 72 3.7 ENE 19 22 10 12 1008.0 1007.9 0.0
25/09:30am 27.2 28.3 21.9 73 3.6 ENE 19 22 10 12 1008.2 1008.1 0.0
25/09:00am 26.9 28.0 21.9 74 3.4 NE 19 20 10 11 1008.2 1008.1 0.0
25/08:30am 26.5 28.7 22.6 79 2.6 E 15 19 8 10 1008.2 1008.1 0.0
25/08:00am 25.8 27.1 21.7 78 2.7 E 17 19 9 10 1008.1 1008.0 0.0
25/07:30am 25.7 26.8 22.0 80 2.5 ESE 19 20 10 11 1008.1 1008.0 0.0
25/07:00am 26.1 28.3 22.6 81 2.4 ESE 15 17 8 9 1007.9 1007.8 0.0
25/06:30am 26.1 29.5 22.0 78 2.7 ENE 7 15 4 8 1007.7 1007.6 0.0
25/06:00am 26.4 29.7 22.5 79 2.6 E 9 11 5 6 1007.4 1007.3 0.0
25/05:30am 26.2 28.6 22.3 79 2.6 S 13 17 7 9 1006.9 1006.8 0.0
25/05:00am 26.3 28.1 21.9 77 2.9 SSE 15 17 8 9 1006.6 1006.5 0.0
25/04:30am 26.4 27.4 21.8 76 3.1 SSE 19 24 10 13 1006.5 1006.4 0.0
25/04:00am 26.5 28.1 22.8 80 2.5 SSE 19 22 10 12 1006.4 1006.3 0.0
25/03:30am 26.4 27.9 22.7 80 2.5 SSE 19 20 10 11 1006.6 1006.5 0.0
25/03:00am 26.2 27.5 22.3 79 2.6 S 19 22 10 12 1006.7 1006.6 0.0
25/02:30am 26.3 27.9 22.2 78 2.8 SSE 17 20 9 11 1007.1 1007.0 0.0
25/02:00am 26.3 28.8 22.4 79 2.6 SSE 13 17 7 9 1007.5 1007.4 0.0
25/01:30am 26.4 28.7 22.0 77 2.9 SSE 13 17 7 9 1007.8 1007.7 0.0
25/01:00am 26.5 28.2 21.7 75 3.2 S 15 20 8 11 1008.1 1008.0 0.0
25/12:30am 26.7 28.6 22.1 76 3.1 S 15 19 8 10 1008.5 1008.4 0.0
25/12:00am 26.9 28.3 22.5 77 3.0 S 19 22 10 12 1009.0 1008.9 0.0
 
Date/Time
EST
Temp
°C
App
Temp
°C
Dew
Point
°C
Rel
Hum
%
Delta-T
°C
Wind Press
QNH
hPa
Press
MSL
hPa
Rain since
9am
mm
Dir  Spd
km/h
Gust
km/h
Spd
kts
Gust
kts
24/11:30pm 27.1 28.8 21.6 72 3.7 ESE 15 19 8 10 1009.2 1009.1 0.0
24/11:00pm 27.2 28.1 21.5 71 3.8 ESE 19 22 10 12 1009.3 1009.2 0.0
24/10:30pm 27.4 28.5 21.9 72 3.7 ESE 19 24 10 13 1009.3 1009.2 0.0
24/10:00pm 27.5 28.2 22.2 73 3.6 ESE 22 28 12 15 1009.0 1008.9 0.0
24/09:30pm 27.5 27.8 22.9 76 3.1 ESE 26 30 14 16 1008.7 1008.6 0.0
24/09:00pm 27.6 27.4 22.8 75 3.3 ESE 28 32 15 17 1008.5 1008.4 0.0
24/08:30pm 27.6 27.7 23.2 77 3.0 ESE 28 33 15 18 1008.3 1008.2 0.0
24/08:00pm 27.7 27.8 23.3 77 3.0 ESE 28 33 15 18 1008.0 1007.9 0.0
24/07:30pm 27.8 28.2 23.2 76 3.1 ESE 26 32 14 17 1007.8 1007.7 0.0
24/07:00pm 27.8 27.7 22.3 72 3.7 ESE 26 32 14 17 1007.6 1007.5 0.0
24/06:30pm 28.0 27.5 22.2 70 3.9 ESE 28 35 15 19 1007.2 1007.1 0.0
24/06:00pm 28.4 28.1 22.6 71 3.9 ESE 28 35 15 19 1006.9 1006.8 0.0
24/05:30pm 28.9 29.0 23.3 72 3.8 ESE 28 33 15 18 1006.7 1006.6 0.0
24/05:00pm 28.9 28.9 23.1 71 4.0 ESE 28 33 15 18 1006.5 1006.4 0.0
24/04:30pm 28.9 29.2 23.6 73 3.6 ESE 28 35 15 19 1006.5 1006.4 0.0
24/04:00pm 29.3 29.4 23.3 70 4.1 ESE 28 32 15 17 1006.5 1006.4 0.0
24/03:30pm 29.3 29.3 23.0 69 4.3 ESE 28 33 15 18 1006.6 1006.5 0.0
24/03:00pm 29.3 28.4 22.8 68 4.4 ESE 32 37 17 20 1006.8 1006.7 0.0
24/02:30pm 29.3 29.1 22.8 68 4.4 ESE 28 32 15 17 1007.1 1007.0 0.0
24/02:00pm 29.7 30.4 22.9 67 4.7 ESE 24 28 13 15 1007.3 1007.2 0.0
24/01:30pm 29.2 29.7 22.7 68 4.4 SE 24 28 13 15 1007.5 1007.4 0.0
24/01:00pm 29.1 30.2 22.3 66 4.6 ESE 20 24 11 13 1007.9 1007.8 0.0
24/12:30pm 29.7 29.6 22.9 67 4.6 ESE 28 32 15 17 1008.1 1008.0 0.0
24/12:00pm 29.1 28.8 22.6 68 4.4 ESE 28 32 15 17 1008.4 1008.3 0.0
24/11:30am 28.9 28.0 22.2 67 4.5 ESE 30 33 16 18 1008.9 1008.8 0.0
24/11:00am 28.6 28.2 23.1 72 3.8 SE 30 33 16 18 1009.3 1009.2 0.0
24/10:30am 28.5 28.6 23.2 73 3.6 SE 28 32 15 17 1009.4 1009.3 0.0
24/10:00am 27.8 28.2 23.2 76 3.1 SE 26 30 14 16 1009.6 1009.5 0.0
24/09:30am 27.3 27.1 22.7 76 3.1 SE 28 32 15 17 1009.6 1009.5 0.0
24/09:00am 27.0 27.4 22.4 76 3.1 SE 24 30 13 16 1009.6 1009.5 0.0
24/08:30am 26.9 26.7 22.1 75 3.2 SE 26 30 14 16 1009.3 1009.2 0.0
24/08:00am 27.0 26.6 22.4 76 3.1 SE 28 33 15 18 1008.9 1008.8 0.0
24/07:30am 26.9 27.0 22.5 77 3.0 SE 26 32 14 17 1008.9 1008.8 0.0
24/07:00am 26.9 26.2 22.5 77 3.0 SE 30 33 16 18 1008.8 1008.7 0.0
24/06:30am 27.0 26.7 22.6 77 3.0 SE 28 32 15 17 1008.4 1008.3 0.0
24/06:00am 26.9 26.2 22.5 77 3.0 SE 30 33 16 18 1007.9 1007.8 0.0
24/05:30am 27.1 27.1 23.1 79 2.7 SSE 28 32 15 17 1007.7 1007.6 0.0
24/05:00am 26.8 26.7 22.2 76 3.1 SSE 26 30 14 16 1007.7 1007.6 0.0
24/04:30am 26.9 26.8 22.3 76 3.1 SE 26 28 14 15 1007.8 1007.7 0.0
24/04:00am 26.8 27.2 22.4 77 3.0 SSE 24 26 13 14 1007.7 1007.6 0.0
24/03:30am 26.7 28.1 22.8 79 2.6 SSE 20 24 11 13 1007.9 1007.8 0.0
24/03:00am 26.7 27.9 22.5 78 2.8 SE 20 24 11 13 1007.9 1007.8 0.0
24/02:30am 26.7 27.9 22.5 78 2.8 SSE 20 22 11 12 1008.3 1008.2 0.0
24/02:00am 26.7 27.7 22.8 79 2.6 SE 22 26 12 14 1008.7 1008.6 0.0
24/01:30am 26.9 27.4 22.7 78 2.8 SSE 24 28 13 15 1009.0 1008.9 0.0
24/01:00am 26.8 27.7 22.6 78 2.8 SSE 22 24 12 13 1009.5 1009.4 0.0
24/12:30am 27.0 28.0 22.8 78 2.8 SE 22 26 12 14 1010.0 1009.9 0.0
24/12:00am 27.1 27.6 22.7 77 3.0 SE 24 28 13 15 1010.3 1010.2 0.0
 
Date/Time
EST
Temp
°C
App
Temp
°C
Dew
Point
°C
Rel
Hum
%
Delta-T
°C
Wind Press
QNH
hPa
Press
MSL
hPa
Rain since
9am
mm
Dir  Spd
km/h
Gust
km/h
Spd
kts
Gust
kts
23/11:30pm 27.2 27.7 22.6 76 3.1 SE 24 28 13 15 1010.6 1010.5 0.0

Other formats

Comma delimited format used in spreadsheet applications
http://www.bom.gov.au/fwo/IDQ60801/IDQ60801.94285.axf

JavaScript Object Notation format (JSON) in row-major order
http://www.bom.gov.au/fwo/IDQ60801/IDQ60801.94285.json

Data quality

Most of these data are generated automatically and are frequently updated. Quality checks on data are not normally performed. It is possible for incorrect values to appear. Refer to information at About Latest Weather Observations and please check the disclaimer before using these data.